Time;durP1;ratioP1;P1;durP2;ratioP2;P2;SDS_P1;SDS_P2;PMS_P1;PMS_P2;Temp;Humidity;BMP_temperature;BMP_pressure;BME280_temperature;BME280_humidity;BME280_pressure;Samples;Min_cycle;Max_cycle;Signal;HPM_P1;HPM_P2
2022/09/09 00:02:24;;;;;;;6.32;2.05;;;19.70;99.90;;;;;;5069915;28;20078;-75
2022/09/09 00:05:24;;;;;;;7.38;2.25;;;19.70;99.90;;;;;;5067441;28;20047;-74
2022/09/09 00:07:53;;;;;;;5.80;2.50;;;19.70;99.90;;;;;;5062606;28;20035;-74
2022/09/09 00:10:30;;;;;;;3.92;2.08;;;19.70;99.90;;;;;;5072494;28;20036;-74
2022/09/09 00:13:06;;;;;;;5.72;2.88;;;19.70;99.90;;;;;;5076322;28;20021;-75
2022/09/09 00:15:57;;;;;;;10.00;2.58;;;19.80;99.90;;;;;;5076822;28;20096;-75
2022/09/09 00:18:48;;;;;;;6.00;2.50;;;19.80;99.90;;;;;;5065593;28;20028;-75
2022/09/09 00:21:15;;;;;;;;;;;19.80;99.90;;;;;;5060637;28;20029;-75
2022/09/09 00:24:08;;;;;;;4.65;2.30;;;19.90;99.90;;;;;;5064011;28;20018;-75
2022/09/09 00:26:46;;;;;;;5.65;2.40;;;19.90;99.90;;;;;;5063831;28;20551;-74
2022/09/09 00:29:23;;;;;;;8.15;2.70;;;19.90;99.90;;;;;;5064421;28;20025;-75
2022/09/09 00:31:51;;;;;;;8.25;2.30;;;19.90;99.90;;;;;;5067917;28;20020;-74
2022/09/09 00:34:26;;;;;;;8.15;2.63;;;19.90;99.90;;;;;;5073136;28;20113;-74
2022/09/09 00:36:54;;;;;;;3.97;2.10;;;19.90;99.90;;;;;;5076586;28;20469;-78
2022/09/09 00:39:36;;;;;;;5.63;2.42;;;20.00;99.90;;;;;;5076463;28;20021;-77
2022/09/09 00:42:16;;;;;;;4.18;2.38;;;20.00;99.90;;;;;;5058386;28;20047;-75
2022/09/09 00:45:20;;;;;;;10.65;3.08;;;19.90;99.90;;;;;;5060872;28;20021;-74
2022/09/09 00:47:50;;;;;;;7.57;2.10;;;19.90;99.90;;;;;;5062789;28;20031;-75
2022/09/09 00:50:29;;;;;;;3.60;1.90;;;19.90;99.90;;;;;;5061270;28;20076;-75
2022/09/09 00:53:15;;;;;;;6.65;2.35;;;19.90;99.90;;;;;;5066955;28;20021;-74
2022/09/09 00:55:47;;;;;;;4.30;2.00;;;19.90;99.90;;;;;;5073644;28;20485;-77
2022/09/09 00:58:14;;;;;;;3.63;2.13;;;19.80;99.90;;;;;;5067739;28;20035;-75
2022/09/09 01:00:57;;;;;;;8.98;2.50;;;19.80;99.90;;;;;;5066378;28;20017;-76
2022/09/09 01:03:33;;;;;;;7.88;2.65;;;19.80;99.90;;;;;;5068094;28;20028;-75
2022/09/09 01:06:11;;;;;;;4.68;2.08;;;19.80;99.90;;;;;;5071832;28;20044;-75
2022/09/09 01:09:07;;;;;;;7.07;2.28;;;19.80;99.90;;;;;;5070023;28;20021;-75
2022/09/09 01:12:01;;;;;;;5.18;1.90;;;19.90;99.90;;;;;;5075188;28;20021;-74
2022/09/09 01:14:36;;;;;;;6.65;2.13;;;19.80;99.90;;;;;;5065942;28;20029;-75
2022/09/09 01:17:30;;;;;;;7.95;2.60;;;19.80;99.90;;;;;;5072482;28;20125;-75
2022/09/09 01:19:59;;;;;;;7.95;2.88;;;19.80;99.90;;;;;;5059841;28;20028;-75
2022/09/09 01:23:07;;;;;;;7.63;2.53;;;19.80;99.90;;;;;;5060140;28;20017;-74
2022/09/09 01:26:04;;;;;;;5.30;2.28;;;19.90;99.90;;;;;;5069396;28;20078;-74
2022/09/09 01:28:31;;;;;;;7.80;2.30;;;19.90;99.90;;;;;;5065612;28;20025;-75
2022/09/09 01:30:58;;;;;;;7.90;2.40;;;19.90;99.90;;;;;;5064364;28;20385;-75
2022/09/09 01:33:24;;;;;;;2.45;1.80;;;19.90;99.90;;;;;;5069446;28;20020;-75
2022/09/09 01:36:22;;;;;;;4.85;1.98;;;19.90;99.90;;;;;;5072440;28;20049;-75
2022/09/09 01:38:48;;;;;;;7.70;2.42;;;19.90;99.90;;;;;;5064488;28;20109;-75
2022/09/09 01:41:14;;;;;;;4.03;1.50;;;19.90;99.90;;;;;;5061681;28;20041;-75
2022/09/09 01:43:40;;;;;;;4.97;1.70;;;20.00;99.90;;;;;;5060190;28;20082;-75
2022/09/09 01:46:06;;;;;;;4.50;1.70;;;20.00;99.90;;;;;;5074560;28;20044;-76
2022/09/09 01:48:32;;;;;;;7.00;2.30;;;20.00;99.90;;;;;;5062312;28;20021;-75
2022/09/09 01:50:58;;;;;;;9.00;2.30;;;20.00;99.90;;;;;;5078519;28;20028;-75
2022/09/09 01:53:24;;;;;;;8.70;2.63;;;20.00;99.90;;;;;;5075445;28;20074;-76
2022/09/09 01:56:12;;;;;;;6.60;2.53;;;20.00;99.90;;;;;;5071446;28;20056;-75
2022/09/09 01:58:58;;;;;;;5.25;1.83;;;20.00;99.90;;;;;;5080007;28;20077;-74
2022/09/09 02:01:44;;;;;;;6.47;2.40;;;20.00;99.90;;;;;;5072704;28;20040;-75
2022/09/09 02:04:38;;;;;;;10.07;1.88;;;19.90;99.90;;;;;;5064317;28;20049;-75
2022/09/09 02:07:13;;;;;;;5.18;2.25;;;19.90;99.90;;;;;;5071460;28;20029;-75
2022/09/09 02:09:44;;;;;;;7.80;2.15;;;19.80;99.90;;;;;;5063395;28;20013;-74
2022/09/09 02:12:17;;;;;;;5.50;1.85;;;19.70;99.90;;;;;;5066703;28;20092;-75
2022/09/09 02:14:49;;;;;;;12.63;2.42;;;19.70;99.90;;;;;;5065873;28;20015;-75
2022/09/09 02:17:24;;;;;;;7.85;2.45;;;19.60;99.90;;;;;;5070281;28;20028;-75
2022/09/09 02:20:05;;;;;;;6.28;3.00;;;19.50;99.90;;;;;;5066743;28;20060;-75
2022/09/09 02:22:35;;;;;;;10.00;2.95;;;19.50;99.90;;;;;;5074963;28;20062;-75
2022/09/09 02:25:05;;;;;;;5.73;2.80;;;19.50;99.90;;;;;;5072499;28;20044;-74
2022/09/09 02:27:31;;;;;;;7.28;2.58;;;19.50;99.90;;;;;;5077283;28;20028;-76
2022/09/09 02:30:00;;;;;;;10.68;2.53;;;19.50;99.90;;;;;;5076940;28;20082;-74
2022/09/09 02:32:27;;;;;;;10.63;3.05;;;19.50;99.90;;;;;;5078055;28;20052;-77
2022/09/09 02:35:00;;;;;;;5.97;2.55;;;19.60;99.90;;;;;;5063211;28;20041;-76
2022/09/09 02:37:33;;;;;;;7.25;2.83;;;19.50;99.90;;;;;;5069566;28;20119;-75
2022/09/09 02:39:59;;;;;;;5.55;2.42;;;19.50;99.90;;;;;;5077297;28;20024;-75
2022/09/09 02:42:25;;;;;;;5.60;2.20;;;19.50;99.90;;;;;;5072438;28;20138;-74
2022/09/09 02:44:51;;;;;;;8.13;2.60;;;19.50;99.90;;;;;;5072593;28;20100;-75
2022/09/09 02:47:41;;;;;;;4.60;2.28;;;19.50;99.90;;;;;;5074940;28;20067;-74
2022/09/09 02:50:15;;;;;;;6.68;2.55;;;19.50;99.90;;;;;;5063269;28;20385;-74
2022/09/09 02:52:58;;;;;;;11.95;1.88;;;19.40;99.90;;;;;;5067488;28;20078;-75
2022/09/09 02:56:00;;;;;;;5.65;2.45;;;19.40;99.90;;;;;;5064860;28;20029;-74
2022/09/09 02:58:28;;;;;;;5.28;2.03;;;19.40;99.90;;;;;;5036971;28;20044;-75
2022/09/09 03:00:57;;;;;;;11.70;2.40;;;19.30;99.90;;;;;;5066087;28;20033;-74
2022/09/09 03:03:23;;;;;;;4.20;2.00;;;19.30;99.90;;;;;;5071159;28;20028;-74
2022/09/09 03:05:49;;;;;;;7.70;2.63;;;19.30;99.90;;;;;;5071786;28;20024;-75
2022/09/09 03:08:16;;;;;;;8.55;2.55;;;19.30;99.90;;;;;;5075552;28;20033;-74
2022/09/09 03:10:42;;;;;;;6.35;2.25;;;19.30;99.90;;;;;;5076298;28;20012;-75
2022/09/09 03:13:07;;;;;;;4.75;1.90;;;19.30;99.90;;;;;;5067371;28;20054;-74
2022/09/09 03:15:34;;;;;;;4.15;2.05;;;19.30;99.90;;;;;;5060479;28;20589;-75
2022/09/09 03:18:01;;;;;;;8.25;2.30;;;19.30;99.90;;;;;;5059498;28;20025;-74
2022/09/09 03:20:28;;;;;;;6.97;2.83;;;19.30;99.90;;;;;;5064761;28;20064;-75
2022/09/09 03:22:55;;;;;;;5.18;2.20;;;19.30;99.90;;;;;;5062257;28;20044;-75
2022/09/09 03:25:25;;;;;;;5.40;1.80;;;19.30;99.90;;;;;;5072989;28;20025;-74
2022/09/09 03:27:54;;;;;;;12.63;2.67;;;19.30;99.90;;;;;;5062706;28;20032;-75
2022/09/09 03:30:24;;;;;;;4.47;2.00;;;19.40;99.90;;;;;;5070803;28;20024;-75
2022/09/09 03:32:50;;;;;;;;;;;19.30;99.90;;;;;;5066417;28;20013;-74
2022/09/09 03:35:16;;;;;;;5.28;1.90;;;19.30;99.90;;;;;;5073148;28;19924;-74
2022/09/09 03:37:42;;;;;;;7.75;2.70;;;19.30;99.90;;;;;;5069863;28;20029;-75
2022/09/09 03:40:12;;;;;;;6.88;2.70;;;19.30;99.90;;;;;;5063838;28;20082;-74
2022/09/09 03:42:39;;;;;;;6.15;1.90;;;19.30;99.90;;;;;;5073967;28;20028;-75
2022/09/09 03:45:08;;;;;;;6.50;2.25;;;19.30;99.90;;;;;;5076197;28;20021;-75
2022/09/09 03:47:35;;;;;;;6.13;2.03;;;19.30;99.90;;;;;;5067741;28;20074;-75
2022/09/09 03:50:03;;;;;;;5.05;2.33;;;19.30;99.90;;;;;;5078195;28;20399;-74
2022/09/09 03:52:30;;;;;;;8.73;1.95;;;19.30;99.90;;;;;;5077167;28;20029;-75
2022/09/09 03:54:56;;;;;;;5.95;2.13;;;19.30;99.90;;;;;;5063583;28;20013;-75
2022/09/09 03:57:22;;;;;;;4.90;2.20;;;19.30;99.90;;;;;;5073361;28;20045;-75
2022/09/09 03:59:48;;;;;;;4.30;1.88;;;19.20;99.90;;;;;;5076926;28;20021;-74
2022/09/09 04:02:15;;;;;;;3.75;1.98;;;19.20;99.90;;;;;;5076178;28;20424;-75
2022/09/09 04:04:41;;;;;;;4.57;1.90;;;19.20;99.90;;;;;;5064242;28;20017;-75
2022/09/09 04:07:07;;;;;;;5.55;2.08;;;19.20;99.90;;;;;;5064965;28;20043;-75
2022/09/09 04:09:35;;;;;;;8.43;2.17;;;19.20;99.90;;;;;;5061344;28;20105;-74
2022/09/09 04:12:01;;;;;;;6.30;2.33;;;19.20;99.90;;;;;;5062605;28;20025;-74
2022/09/09 04:14:28;;;;;;;7.03;1.98;;;19.20;99.90;;;;;;5064109;28;20018;-74
2022/09/09 04:16:55;;;;;;;8.80;2.17;;;19.30;99.90;;;;;;5065999;28;20029;-75
2022/09/09 04:19:21;;;;;;;3.53;2.17;;;19.30;99.90;;;;;;5069349;28;20111;-75
2022/09/09 04:21:51;;;;;;;5.47;1.77;;;19.30;99.90;;;;;;5071402;28;20055;-75
2022/09/09 04:24:17;;;;;;;5.70;1.75;;;19.30;99.90;;;;;;5072200;28;20028;-75
2022/09/09 04:26:43;;;;;;;7.43;2.53;;;19.30;99.90;;;;;;5070422;28;20020;-75
2022/09/09 04:29:09;;;;;;;6.28;1.80;;;19.30;99.90;;;;;;5075462;28;20023;-75
2022/09/09 04:31:35;;;;;;;5.75;2.40;;;19.30;99.90;;;;;;5075440;28;20067;-76
2022/09/09 04:34:05;;;;;;;6.35;1.75;;;19.30;99.90;;;;;;5067498;28;20028;-75
2022/09/09 04:36:32;;;;;;;3.63;1.73;;;19.30;99.90;;;;;;5058140;28;20041;-75
2022/09/09 04:38:58;;;;;;;6.55;2.05;;;19.30;99.90;;;;;;5059226;28;20055;-75
2022/09/09 04:41:24;;;;;;;7.22;1.90;;;19.30;99.90;;;;;;5078641;28;20028;-75
2022/09/09 04:43:52;;;;;;;5.03;2.00;;;19.20;99.90;;;;;;5061580;28;20052;-75
2022/09/09 04:46:17;;;;;;;6.63;2.13;;;19.20;99.90;;;;;;5064722;28;20454;-75
2022/09/09 04:48:43;;;;;;;5.80;2.10;;;19.20;99.90;;;;;;5062490;28;20115;-75
2022/09/09 04:51:12;;;;;;;3.85;1.80;;;19.10;99.90;;;;;;5067085;28;20074;-75
2022/09/09 04:53:40;;;;;;;8.45;1.98;;;19.10;99.90;;;;;;5067121;28;20505;-75
2022/09/09 04:56:11;;;;;;;7.90;2.25;;;19.10;99.90;;;;;;5074333;28;20514;-76
2022/09/09 04:58:38;;;;;;;6.78;2.58;;;19.00;99.90;;;;;;5072626;28;20039;-76
2022/09/09 05:01:17;;;;;;;7.47;2.30;;;19.00;99.90;;;;;;5075258;28;20030;-75
2022/09/09 05:03:45;;;;;;;5.35;2.45;;;19.00;99.90;;;;;;5073445;28;20395;-75
2022/09/09 05:06:13;;;;;;;6.40;2.38;;;19.00;99.90;;;;;;5058024;28;20099;-76
2022/09/09 05:08:42;;;;;;;6.22;2.00;;;19.00;99.90;;;;;;5058717;28;20060;-76
2022/09/09 05:11:18;;;;;;;4.03;2.35;;;19.00;99.90;;;;;;5058393;28;20496;-76
2022/09/09 05:13:45;;;;;;;3.67;2.10;;;19.00;99.90;;;;;;5063553;28;20052;-76
2022/09/09 05:16:11;;;;;;;8.45;2.10;;;19.00;99.90;;;;;;5061340;28;20374;-77
2022/09/09 05:18:44;;;;;;;5.53;2.42;;;19.00;99.90;;;;;;5067232;28;20047;-76
2022/09/09 05:21:11;;;;;;;7.80;1.83;;;19.00;99.90;;;;;;5067072;28;20055;-76
2022/09/09 05:23:37;;;;;;;8.70;2.60;;;19.00;99.90;;;;;;5080366;28;20082;-75
2022/09/09 05:26:04;;;;;;;5.50;2.20;;;18.80;99.90;;;;;;5077496;28;20480;-75
2022/09/09 05:28:31;;;;;;;3.65;2.10;;;18.70;99.90;;;;;;5071378;28;20075;-75
2022/09/09 05:31:07;;;;;;;5.57;2.60;;;18.50;99.90;;;;;;5073518;28;20035;-75
2022/09/09 05:33:34;;;;;;;7.13;2.50;;;18.30;99.90;;;;;;5060678;28;20021;-75
2022/09/09 05:36:07;;;;;;;5.18;2.67;;;18.30;99.90;;;;;;5062173;28;20041;-75
2022/09/09 05:38:34;;;;;;;4.35;2.20;;;18.20;99.90;;;;;;5067580;28;20024;-75
2022/09/09 05:41:02;;;;;;;9.02;2.63;;;18.20;99.90;;;;;;5070602;28;20130;-75
2022/09/09 05:43:29;;;;;;;5.50;2.28;;;18.10;99.90;;;;;;5077636;28;20053;-76
2022/09/09 05:46:07;;;;;;;6.43;2.75;;;18.00;99.90;;;;;;5083051;28;20036;-75
2022/09/09 05:48:39;;;;;;;9.52;2.65;;;17.90;99.90;;;;;;5070420;28;20096;-75
2022/09/09 05:51:08;;;;;;;5.00;2.38;;;17.80;99.90;;;;;;5071984;28;20028;-75
2022/09/09 05:53:34;;;;;;;4.07;2.38;;;17.80;99.90;;;;;;5072689;28;20048;-75
2022/09/09 05:56:03;;;;;;;5.47;2.13;;;17.80;99.90;;;;;;5077364;28;20032;-75
2022/09/09 05:58:33;;;;;;;3.35;2.22;;;17.70;99.90;;;;;;5076291;28;20028;-76
2022/09/09 06:01:07;;;;;;;6.43;2.53;;;17.80;99.90;;;;;;5078547;28;20450;-75
2022/09/09 06:03:34;;;;;;;3.78;2.10;;;17.70;99.90;;;;;;5076459;28;20029;-75
2022/09/09 06:06:05;;;;;;;8.20;2.88;;;17.70;99.90;;;;;;5073479;28;20027;-75
2022/09/09 06:08:32;;;;;;;6.15;2.35;;;17.80;99.90;;;;;;5072178;28;20029;-75
2022/09/09 06:11:04;;;;;;;6.50;3.30;;;17.70;99.90;;;;;;5062238;28;20040;-76
2022/09/09 06:13:31;;;;;;;4.55;2.63;;;17.80;99.90;;;;;;5063396;28;20397;-76
2022/09/09 06:15:58;;;;;;;6.57;3.38;;;17.80;99.90;;;;;;5068770;28;20020;-76
2022/09/09 06:18:25;;;;;;;6.25;3.30;;;17.80;99.90;;;;;;5071558;28;20025;-75
2022/09/09 06:21:04;;;;;;;4.55;2.40;;;17.70;99.90;;;;;;5076733;28;20107;-75
2022/09/09 06:23:31;;;;;;;8.95;2.85;;;17.80;99.90;;;;;;5069775;28;20047;-75
2022/09/09 06:26:09;;;;;;;6.38;3.10;;;17.90;99.90;;;;;;5077021;28;20099;-75
2022/09/09 06:28:36;;;;;;;7.78;2.45;;;17.90;99.90;;;;;;5073590;28;20052;-76
2022/09/09 06:31:04;;;;;;;6.43;2.33;;;18.00;99.90;;;;;;5074350;28;20488;-75
2022/09/09 06:33:34;;;;;;;3.78;2.40;;;18.10;99.90;;;;;;5076623;28;20048;-75
2022/09/09 06:36:02;;;;;;;4.35;2.67;;;18.20;99.90;;;;;;5077222;28;20080;-75
2022/09/09 06:38:28;;;;;;;4.28;2.40;;;18.30;99.90;;;;;;5073334;28;20017;-75
2022/09/09 06:40:55;;;;;;;6.35;2.40;;;18.30;99.90;;;;;;5063959;28;20531;-75
2022/09/09 06:43:22;;;;;;;5.93;3.33;;;18.30;99.90;;;;;;5075827;28;20021;-75
2022/09/09 06:46:00;;;;;;;4.22;2.70;;;18.20;99.90;;;;;;5075919;28;20025;-75
2022/09/09 06:48:27;;;;;;;7.05;3.08;;;18.30;99.90;;;;;;5067995;28;20033;-75
2022/09/09 06:51:05;;;;;;;4.45;2.70;;;18.40;99.90;;;;;;5077027;28;20381;-75
2022/09/09 06:53:35;;;;;;;5.00;2.30;;;18.60;99.90;;;;;;5059802;28;20206;-75
2022/09/09 06:56:23;;;;;;;11.10;3.10;;;18.70;99.90;;;;;;5062516;28;20027;-75
2022/09/09 06:58:51;;;;;;;9.23;2.95;;;18.70;99.90;;;;;;5060368;28;20493;-75
2022/09/09 07:01:20;;;;;;;5.97;2.72;;;18.80;99.90;;;;;;5065322;28;20548;-75
2022/09/09 07:03:50;;;;;;;7.68;2.63;;;18.80;99.90;;;;;;5064938;28;20032;-75
2022/09/09 07:06:21;;;;;;;10.02;2.28;;;18.90;99.90;;;;;;5070321;28;20079;-74
2022/09/09 07:08:55;;;;;;;6.90;2.88;;;18.90;99.90;;;;;;5072259;28;20055;-75
2022/09/09 07:11:22;;;;;;;5.43;3.13;;;19.00;99.90;;;;;;5071601;28;20384;-75
2022/09/09 07:13:49;;;;;;;4.43;2.67;;;18.90;99.90;;;;;;5071448;28;20017;-75
2022/09/09 07:16:17;;;;;;;7.78;2.65;;;18.90;99.90;;;;;;5073400;28;20020;-74
2022/09/09 07:18:43;;;;;;;7.68;3.15;;;19.00;99.90;;;;;;5074208;28;20020;-74
2022/09/09 07:21:11;;;;;;;6.93;2.90;;;18.90;99.90;;;;;;5076224;28;20024;-75
2022/09/09 07:23:38;;;;;;;6.43;2.25;;;18.90;99.90;;;;;;5077347;28;20024;-75
2022/09/09 07:26:16;;;;;;;8.88;2.78;;;18.90;99.90;;;;;;5067621;28;20028;-75
2022/09/09 07:28:42;;;;;;;5.63;2.40;;;19.00;99.90;;;;;;5061114;28;20029;-75
2022/09/09 07:31:18;;;;;;;3.88;2.70;;;19.20;99.90;;;;;;5059482;28;20080;-75
2022/09/09 07:33:44;;;;;;;3.70;2.10;;;19.20;99.90;;;;;;5077368;28;20032;-75
2022/09/09 07:36:14;;;;;;;5.30;2.63;;;19.30;99.90;;;;;;5068866;28;20041;-75
2022/09/09 07:38:45;;;;;;;7.68;2.67;;;19.30;99.90;;;;;;5066736;28;20025;-75
2022/09/09 07:41:14;;;;;;;7.68;2.80;;;19.20;99.90;;;;;;5072186;28;20075;-75
2022/09/09 07:43:45;;;;;;;9.48;2.88;;;19.20;99.90;;;;;;5071903;28;20083;-75
2022/09/09 07:46:13;;;;;;;8.43;2.75;;;19.10;99.90;;;;;;5070462;28;20385;-74
2022/09/09 07:48:43;;;;;;;3.95;2.30;;;19.00;99.90;;;;;;5073142;28;20032;-75
2022/09/09 07:51:19;;;;;;;9.45;2.50;;;19.00;99.90;;;;;;5076066;28;20100;-75
2022/09/09 07:53:46;;;;;;;4.45;2.58;;;19.10;99.90;;;;;;5075187;28;20028;-75
2022/09/09 07:56:17;;;;;;;9.00;2.65;;;19.10;99.90;;;;;;5076644;28;20020;-75
2022/09/09 07:58:45;;;;;;;5.35;3.08;;;18.90;99.90;;;;;;5065229;28;20483;-76
2022/09/09 08:01:18;;;;;;;7.63;2.65;;;19.10;99.90;;;;;;5072524;28;20029;-75
2022/09/09 08:03:54;;;;;;;11.85;3.53;;;19.10;99.90;;;;;;5061684;28;20033;-76
2022/09/09 08:06:21;;;;;;;3.70;2.40;;;19.10;99.90;;;;;;5072370;28;20025;-75
2022/09/09 08:08:51;;;;;;;7.25;2.90;;;19.10;99.90;;;;;;5064902;28;20119;-75
2022/09/09 08:11:17;;;;;;;6.40;2.55;;;19.10;99.90;;;;;;5065204;28;20021;-75
2022/09/09 08:13:44;;;;;;;7.13;2.25;;;19.00;99.90;;;;;;5067229;28;20025;-75
2022/09/09 08:16:16;;;;;;;4.13;2.53;;;19.00;99.90;;;;;;5067713;28;20028;-75
2022/09/09 08:18:43;;;;;;;4.20;2.28;;;18.90;99.90;;;;;;5068658;28;20029;-75
2022/09/09 08:21:11;;;;;;;5.07;2.70;;;19.00;99.90;;;;;;5071702;28;20139;-75
2022/09/09 08:23:40;;;;;;;4.80;2.33;;;19.00;99.90;;;;;;5070863;28;20155;-75
2022/09/09 08:26:13;;;;;;;3.55;2.20;;;19.00;99.90;;;;;;5074444;28;20481;-75
2022/09/09 08:28:40;;;;;;;3.58;2.58;;;19.00;99.90;;;;;;5075348;28;20036;-75
2022/09/09 08:31:13;;;;;;;6.47;2.42;;;19.00;99.90;;;;;;5075491;28;20020;-74
2022/09/09 08:33:40;;;;;;;5.95;2.60;;;19.00;99.90;;;;;;5058066;28;20013;-76
2022/09/09 08:36:08;;;;;;;3.55;2.05;;;19.00;99.90;;;;;;5058835;28;20120;-76
2022/09/09 08:38:35;;;;;;;4.65;2.15;;;19.00;99.90;;;;;;5059961;28;20036;-77
2022/09/09 08:41:27;;;;;;;5.00;2.42;;;18.90;99.90;;;;;;5063486;28;20130;-76
2022/09/09 08:44:10;;;;;;;7.78;2.40;;;18.90;99.90;;;;;;5047623;28;20066;-76
2022/09/09 08:46:56;;;;;;;5.32;2.08;;;18.90;99.90;;;;;;5063862;28;20046;-76
2022/09/09 08:49:46;;;;;;;5.05;2.55;;;18.90;99.90;;;;;;5070008;28;20036;-77
2022/09/09 08:52:28;;;;;;;10.87;3.03;;;19.10;99.90;;;;;;5054940;28;20435;-77
2022/09/09 08:55:33;;;;;;;4.78;2.47;;;19.20;99.90;;;;;;5065777;28;20025;-77
2022/09/09 08:58:22;;;;;;;5.88;2.60;;;19.20;99.90;;;;;;5070189;28;20031;-77
2022/09/09 09:00:59;;;;;;;7.90;3.33;;;19.20;99.90;;;;;;5058101;28;20039;-77
2022/09/09 09:03:43;;;;;;;5.95;2.08;;;19.30;99.90;;;;;;5059600;28;20025;-78
2022/09/09 09:06:36;;;;;;;3.28;2.17;;;19.30;99.90;;;;;;5060952;28;20049;-77
2022/09/09 09:09:32;;;;;;;3.50;1.88;;;19.30;99.90;;;;;;5064647;28;20024;-77
2022/09/09 09:12:01;;;;;;;5.28;2.13;;;19.20;99.90;;;;;;5067885;28;20029;-77
2022/09/09 09:14:30;;;;;;;4.13;2.05;;;19.00;99.90;;;;;;5065749;28;20486;-77
2022/09/09 09:16:59;;;;;;;7.20;1.48;;;18.70;99.90;;;;;;5067372;28;20162;-77
2022/09/09 09:19:27;;;;;;;7.90;1.92;;;18.60;99.90;;;;;;5072101;28;20108;-76
2022/09/09 09:22:11;;;;;;;5.47;1.90;;;18.40;99.90;;;;;;5069166;28;20025;-76
2022/09/09 09:24:58;;;;;;;3.40;2.03;;;18.30;99.90;;;;;;5073812;28;20025;-76
2022/09/09 09:27:49;;;;;;;9.90;2.60;;;18.30;99.90;;;;;;5057282;28;20501;-76
2022/09/09 09:30:19;;;;;;;4.75;2.28;;;18.30;99.90;;;;;;5059016;28;20154;-77
2022/09/09 09:33:00;;;;;;;5.25;2.30;;;18.30;99.90;;;;;;5058883;28;20032;-78
2022/09/09 09:35:26;;;;;;;5.60;2.22;;;18.10;99.90;;;;;;5070412;28;20041;-77
2022/09/09 09:37:52;;;;;;;7.25;2.17;;;17.70;99.90;;;;;;5060590;28;20032;-79
2022/09/09 09:40:21;;;;;;;4.13;2.17;;;17.30;99.90;;;;;;5065555;28;20104;-77
2022/09/09 09:42:56;;;;;;;3.08;2.10;;;17.10;99.90;;;;;;5063265;28;20030;-77
2022/09/09 09:45:44;;;;;;;3.30;1.80;;;16.90;99.90;;;;;;5067274;28;20031;-77
2022/09/09 09:48:12;;;;;;;6.25;2.28;;;16.70;99.90;;;;;;5070277;28;20020;-77
2022/09/09 09:51:00;;;;;;;7.55;2.65;;;16.60;99.90;;;;;;5070900;28;20016;-78
2022/09/09 09:53:28;;;;;;;4.20;2.50;;;16.50;99.90;;;;;;5078601;28;20017;-77
2022/09/09 09:56:00;;;;;;;5.65;2.72;;;16.40;99.90;;;;;;5071573;28;20017;-78
2022/09/09 09:58:34;;;;;;;4.85;2.35;;;16.40;99.90;;;;;;5075269;28;20086;-76
2022/09/09 10:01:04;;;;;;;6.75;2.72;;;16.40;99.90;;;;;;5073886;28;20496;-77
2022/09/09 10:03:37;;;;;;;9.70;3.40;;;16.40;99.90;;;;;;5066582;28;20025;-78
2022/09/09 10:06:03;;;;;;;7.97;2.78;;;16.50;99.90;;;;;;5063134;28;20029;-78
2022/09/09 10:08:33;;;;;;;7.22;3.50;;;16.50;99.90;;;;;;5062464;28;20021;-78
2022/09/09 10:11:23;;;;;;;5.32;3.20;;;16.50;99.90;;;;;;5066303;28;20079;-76
2022/09/09 10:14:17;;;;;;;7.35;3.30;;;16.60;99.90;;;;;;5067054;28;20016;-77
2022/09/09 10:17:13;;;;;;;5.93;3.40;;;16.60;99.90;;;;;;5073237;28;20431;-77
2022/09/09 10:19:46;;;;;;;7.32;2.90;;;16.60;99.90;;;;;;5069787;28;20017;-77
2022/09/09 10:22:24;;;;;;;7.18;3.05;;;16.60;99.90;;;;;;5073698;28;20033;-76
2022/09/09 10:25:13;;;;;;;3.90;2.80;;;16.60;99.90;;;;;;5073980;28;20012;-77
2022/09/09 10:28:26;;;;;;;10.80;3.47;;;16.60;99.90;;;;;;5077251;28;20032;-77
2022/09/09 10:31:19;;;;;;;4.18;3.05;;;16.70;99.90;;;;;;5072987;28;20044;-77
2022/09/09 10:34:06;;;;;;;5.20;3.10;;;16.80;99.90;;;;;;5080828;28;20028;-78
2022/09/09 10:36:32;;;;;;;4.30;2.75;;;16.90;99.90;;;;;;5074156;28;20048;-78
2022/09/09 10:39:05;;;;;;;6.88;3.63;;;17.00;99.90;;;;;;5061690;28;20089;-78
2022/09/09 10:41:55;;;;;;;3.40;2.72;;;16.90;99.90;;;;;;5067155;28;20029;-77
2022/09/09 10:44:46;;;;;;;4.93;2.65;;;16.90;99.90;;;;;;5077774;28;20024;-76
2022/09/09 10:47:20;;;;;;;7.40;2.90;;;17.00;99.90;;;;;;5072064;28;20499;-78
2022/09/09 10:50:16;;;;;;;4.65;2.67;;;16.70;99.90;;;;;;5077012;28;20507;-77
2022/09/09 10:53:00;;;;;;;3.65;2.35;;;16.70;99.90;;;;;;5078189;28;20025;-77
2022/09/09 10:55:35;;;;;;;3.53;2.45;;;16.70;99.90;;;;;;5068255;28;20021;-76
2022/09/09 10:58:04;;;;;;;4.32;2.85;;;16.70;99.90;;;;;;5081174;28;20115;-77
2022/09/09 11:00:54;;;;;;;5.78;2.70;;;16.60;99.90;;;;;;5077827;28;20522;-76
2022/09/09 11:03:26;;;;;;;5.63;2.63;;;16.60;99.90;;;;;;5077307;28;20033;-77
2022/09/09 11:05:59;;;;;;;7.35;2.75;;;16.60;99.90;;;;;;5076540;28;20021;-77
2022/09/09 11:08:28;;;;;;;4.28;3.05;;;16.80;99.90;;;;;;5078573;28;20107;-77
2022/09/09 11:11:26;;;;;;;3.70;2.42;;;17.00;99.90;;;;;;5061003;28;20012;-77
2022/09/09 11:13:52;;;;;;;5.50;3.38;;;17.20;99.90;;;;;;5062873;28;20021;-77
2022/09/09 11:16:48;;;;;;;9.68;3.15;;;17.30;99.90;;;;;;5060628;28;20017;-77
2022/09/09 11:19:43;;;;;;;6.43;3.10;;;17.50;99.90;;;;;;5066730;28;20021;-77
2022/09/09 11:22:30;;;;;;;5.13;2.50;;;17.60;99.90;;;;;;5069176;28;20572;-77
2022/09/09 11:25:05;;;;;;;4.10;2.65;;;17.70;99.90;;;;;;5077195;28;20024;-78
2022/09/09 11:27:55;;;;;;;5.93;2.92;;;17.80;99.90;;;;;;5070061;28;20048;-78
2022/09/09 11:30:37;;;;;;;5.18;2.75;;;17.80;99.90;;;;;;5066062;28;20021;-78
2022/09/09 11:33:27;;;;;;;5.65;2.60;;;17.90;99.90;;;;;;5071633;28;20104;-78
2022/09/09 11:36:08;;;;;;;4.85;2.75;;;18.10;99.90;;;;;;5077422;28;20040;-78
2022/09/09 11:38:57;;;;;;;4.55;2.40;;;18.30;99.90;;;;;;5065628;28;20039;-79
2022/09/09 11:41:23;;;;;;;4.97;2.90;;;18.30;99.90;;;;;;5061031;28;20497;-79
2022/09/09 11:43:52;;;;;;;4.40;2.55;;;18.30;99.90;;;;;;5058655;28;20040;-79
2022/09/09 11:46:22;;;;;;;4.25;2.15;;;18.40;99.90;;;;;;5061908;28;20112;-79
2022/09/09 11:49:03;;;;;;;6.93;2.53;;;18.50;99.90;;;;;;5060362;28;20111;-79
2022/09/09 11:51:31;;;;;;;3.58;1.95;;;18.80;99.90;;;;;;5070888;28;20477;-79
2022/09/09 11:54:04;;;;;;;6.10;2.10;;;19.00;99.90;;;;;;5063300;28;20017;-79
2022/09/09 11:56:34;;;;;;;4.88;2.17;;;18.90;99.90;;;;;;5076701;28;20103;-79
2022/09/09 11:59:03;;;;;;;5.07;2.28;;;19.10;99.90;;;;;;5073094;28;20020;-81
2022/09/09 12:01:30;;;;;;;8.38;2.17;;;19.20;99.90;;;;;;5072227;28;20027;-80
2022/09/09 12:04:09;;;;;;;5.03;2.10;;;19.50;99.90;;;;;;5068484;28;20021;-80
2022/09/09 12:06:52;;;;;;;4.03;1.80;;;19.50;99.90;;;;;;5072804;28;20059;-79
2022/09/09 12:09:41;;;;;;;4.15;1.90;;;19.60;99.90;;;;;;5075121;28;20046;-78
2022/09/09 12:12:15;;;;;;;5.22;1.77;;;19.40;99.90;;;;;;5063207;28;20045;-78
2022/09/09 12:14:41;;;;;;;8.20;2.20;;;19.50;99.90;;;;;;5077612;28;20071;-78
2022/09/09 12:17:27;;;;;;;7.18;2.78;;;19.70;99.90;;;;;;5060671;28;20036;-77
2022/09/09 12:20:34;;;;;;;6.03;2.60;;;19.90;99.90;;;;;;5059989;28;20028;-78
2022/09/09 12:23:19;;;;;;;5.90;1.92;;;20.00;99.90;;;;;;5071070;28;20026;-77
2022/09/09 12:25:50;;;;;;;4.72;1.70;;;20.20;99.90;;;;;;5073723;28;20032;-77
2022/09/09 12:28:20;;;;;;;7.45;2.03;;;20.00;99.90;;;;;;5069190;28;20086;-77
2022/09/09 12:31:05;;;;;;;7.10;2.80;;;20.00;99.90;;;;;;5070284;28;20021;-77
2022/09/09 12:33:36;;;;;;;8.07;2.15;;;20.10;99.90;;;;;;5059647;28;20254;-77
2022/09/09 12:36:04;;;;;;;4.90;1.83;;;20.00;99.90;;;;;;5058981;28;20131;-77
2022/09/09 12:38:39;;;;;;;8.30;2.03;;;20.40;99.90;;;;;;5058891;28;20028;-77
2022/09/09 12:41:05;;;;;;;8.00;2.05;;;20.20;99.90;;;;;;5070831;28;20055;-78
2022/09/09 12:43:32;;;;;;;5.18;1.70;;;20.30;99.90;;;;;;5064359;28;20023;-79
2022/09/09 12:46:12;;;;;;;4.05;1.90;;;20.50;99.90;;;;;;5064714;28;20481;-79
2022/09/09 12:48:45;;;;;;;8.02;3.00;;;20.40;99.90;;;;;;5067638;28;20060;-80
2022/09/09 12:51:38;;;;;;;5.63;2.25;;;20.80;99.90;;;;;;5068125;28;20396;-78
2022/09/09 12:54:04;;;;;;;4.00;1.80;;;20.90;99.90;;;;;;5070475;28;20029;-78
2022/09/09 12:56:32;;;;;;;5.53;1.83;;;21.40;99.90;;;;;;5075643;28;20496;-79
2022/09/09 12:58:58;;;;;;;5.90;2.00;;;21.10;99.90;;;;;;5073336;28;20065;-79
2022/09/09 13:01:27;;;;;;;9.13;1.98;;;21.20;99.90;;;;;;5076140;28;20092;-79
2022/09/09 13:03:53;;;;;;;2.72;1.20;;;21.30;99.90;;;;;;5073780;28;20025;-79
2022/09/09 13:06:25;;;;;;;6.90;1.83;;;21.50;99.90;;;;;;5057309;28;20074;-79
2022/09/09 13:08:53;;;;;;;5.50;1.80;;;21.50;99.90;;;;;;5072391;28;20511;-78
2022/09/09 13:11:25;;;;;;;8.13;2.50;;;21.70;99.90;;;;;;5060413;28;20022;-78
2022/09/09 13:13:57;;;;;;;4.03;1.95;;;21.90;99.90;;;;;;5064619;28;20039;-80
2022/09/09 13:16:34;;;;;;;6.15;2.05;;;21.70;99.90;;;;;;5061885;28;20489;-78
2022/09/09 13:19:18;;;;;;;5.25;1.90;;;21.60;99.90;;;;;;5068836;28;20423;-78
2022/09/09 13:21:44;;;;;;;6.03;1.65;;;21.70;99.90;;;;;;5066020;28;20029;-78
2022/09/09 13:24:33;;;;;;;5.50;1.67;;;22.00;99.90;;;;;;5070234;28;20472;-78